sensor_id;sensor_type;location;lat;lon;timestamp;P1;durP1;ratioP1;P2;durP2;ratioP2
38717;SDS011;24468;52.128;9.278;2024-03-06T00:01:50;15.20;;;11.13;;
38717;SDS011;24468;52.128;9.278;2024-03-06T00:04:16;19.40;;;11.25;;
38717;SDS011;24468;52.128;9.278;2024-03-06T00:06:41;20.50;;;11.07;;
38717;SDS011;24468;52.128;9.278;2024-03-06T00:09:07;23.90;;;11.27;;
38717;SDS011;24468;52.128;9.278;2024-03-06T00:11:33;16.10;;;10.07;;
38717;SDS011;24468;52.128;9.278;2024-03-06T00:14:01;15.50;;;10.48;;
38717;SDS011;24468;52.128;9.278;2024-03-06T00:16:27;16.00;;;10.13;;
38717;SDS011;24468;52.128;9.278;2024-03-06T00:18:53;17.75;;;10.82;;
38717;SDS011;24468;52.128;9.278;2024-03-06T00:21:19;17.80;;;10.52;;
38717;SDS011;24468;52.128;9.278;2024-03-06T00:23:44;15.73;;;10.68;;
38717;SDS011;24468;52.128;9.278;2024-03-06T00:26:11;13.75;;;9.82;;
38717;SDS011;24468;52.128;9.278;2024-03-06T00:28:37;13.00;;;9.52;;
38717;SDS011;24468;52.128;9.278;2024-03-06T00:31:04;18.45;;;10.60;;
38717;SDS011;24468;52.128;9.278;2024-03-06T00:33:30;17.63;;;9.70;;
38717;SDS011;24468;52.128;9.278;2024-03-06T00:35:56;13.10;;;9.88;;
38717;SDS011;24468;52.128;9.278;2024-03-06T00:38:21;14.10;;;9.65;;
38717;SDS011;24468;52.128;9.278;2024-03-06T00:40:47;12.38;;;9.63;;
38717;SDS011;24468;52.128;9.278;2024-03-06T00:43:12;14.73;;;9.98;;
38717;SDS011;24468;52.128;9.278;2024-03-06T00:45:38;11.20;;;8.85;;
38717;SDS011;24468;52.128;9.278;2024-03-06T00:48:03;14.55;;;9.75;;
38717;SDS011;24468;52.128;9.278;2024-03-06T00:50:29;13.45;;;9.18;;
38717;SDS011;24468;52.128;9.278;2024-03-06T00:52:55;15.23;;;10.07;;
38717;SDS011;24468;52.128;9.278;2024-03-06T00:55:21;14.98;;;9.30;;
38717;SDS011;24468;52.128;9.278;2024-03-06T00:57:46;18.80;;;9.32;;
38717;SDS011;24468;52.128;9.278;2024-03-06T01:00:12;13.93;;;10.68;;
38717;SDS011;24468;52.128;9.278;2024-03-06T01:02:39;14.00;;;9.45;;
38717;SDS011;24468;52.128;9.278;2024-03-06T01:05:05;13.30;;;9.10;;
38717;SDS011;24468;52.128;9.278;2024-03-06T01:07:32;15.05;;;10.45;;
38717;SDS011;24468;52.128;9.278;2024-03-06T01:09:58;16.65;;;9.75;;
38717;SDS011;24468;52.128;9.278;2024-03-06T01:12:24;11.48;;;9.50;;
38717;SDS011;24468;52.128;9.278;2024-03-06T01:14:50;12.52;;;9.65;;
38717;SDS011;24468;52.128;9.278;2024-03-06T01:17:16;17.00;;;10.02;;
38717;SDS011;24468;52.128;9.278;2024-03-06T01:19:42;15.63;;;9.90;;
38717;SDS011;24468;52.128;9.278;2024-03-06T01:22:10;14.20;;;9.45;;
38717;SDS011;24468;52.128;9.278;2024-03-06T01:24:38;14.65;;;8.98;;
38717;SDS011;24468;52.128;9.278;2024-03-06T01:27:04;13.40;;;9.95;;
38717;SDS011;24468;52.128;9.278;2024-03-06T01:29:30;13.55;;;9.48;;
38717;SDS011;24468;52.128;9.278;2024-03-06T01:31:55;17.52;;;9.45;;
38717;SDS011;24468;52.128;9.278;2024-03-06T01:34:21;13.98;;;9.98;;
38717;SDS011;24468;52.128;9.278;2024-03-06T01:36:47;13.82;;;9.82;;
38717;SDS011;24468;52.128;9.278;2024-03-06T01:39:13;13.13;;;10.45;;
38717;SDS011;24468;52.128;9.278;2024-03-06T01:41:45;19.30;;;10.23;;
38717;SDS011;24468;52.128;9.278;2024-03-06T01:44:12;15.48;;;9.60;;
38717;SDS011;24468;52.128;9.278;2024-03-06T01:46:38;11.30;;;10.10;;
38717;SDS011;24468;52.128;9.278;2024-03-06T01:49:04;14.20;;;10.00;;
38717;SDS011;24468;52.128;9.278;2024-03-06T01:51:31;11.95;;;10.40;;
38717;SDS011;24468;52.128;9.278;2024-03-06T01:53:57;23.50;;;10.40;;
38717;SDS011;24468;52.128;9.278;2024-03-06T01:56:25;12.45;;;9.80;;
38717;SDS011;24468;52.128;9.278;2024-03-06T01:58:53;14.07;;;10.80;;
38717;SDS011;24468;52.128;9.278;2024-03-06T02:01:19;13.93;;;11.57;;
38717;SDS011;24468;52.128;9.278;2024-03-06T02:03:46;12.57;;;10.45;;
38717;SDS011;24468;52.128;9.278;2024-03-06T02:06:13;13.32;;;9.70;;
38717;SDS011;24468;52.128;9.278;2024-03-06T02:08:44;15.50;;;9.95;;
38717;SDS011;24468;52.128;9.278;2024-03-06T02:11:11;14.32;;;9.70;;
38717;SDS011;24468;52.128;9.278;2024-03-06T02:13:38;12.82;;;10.68;;
38717;SDS011;24468;52.128;9.278;2024-03-06T02:16:04;17.95;;;10.30;;
38717;SDS011;24468;52.128;9.278;2024-03-06T02:18:30;12.80;;;10.25;;
38717;SDS011;24468;52.128;9.278;2024-03-06T02:20:56;14.55;;;10.10;;
38717;SDS011;24468;52.128;9.278;2024-03-06T02:23:22;14.15;;;10.38;;
38717;SDS011;24468;52.128;9.278;2024-03-06T02:25:48;16.17;;;11.27;;
38717;SDS011;24468;52.128;9.278;2024-03-06T02:28:15;16.52;;;10.80;;
38717;SDS011;24468;52.128;9.278;2024-03-06T02:30:41;14.82;;;10.98;;
38717;SDS011;24468;52.128;9.278;2024-03-06T02:33:07;12.80;;;9.80;;
38717;SDS011;24468;52.128;9.278;2024-03-06T02:35:34;14.40;;;11.02;;
38717;SDS011;24468;52.128;9.278;2024-03-06T02:38:01;17.35;;;10.57;;
38717;SDS011;24468;52.128;9.278;2024-03-06T02:40:30;12.90;;;10.57;;
38717;SDS011;24468;52.128;9.278;2024-03-06T02:42:56;13.95;;;10.60;;
38717;SDS011;24468;52.128;9.278;2024-03-06T02:45:21;15.23;;;11.52;;
38717;SDS011;24468;52.128;9.278;2024-03-06T02:47:47;18.20;;;12.23;;
38717;SDS011;24468;52.128;9.278;2024-03-06T02:50:13;17.83;;;12.07;;
38717;SDS011;24468;52.128;9.278;2024-03-06T02:52:39;13.80;;;10.93;;
38717;SDS011;24468;52.128;9.278;2024-03-06T02:55:05;19.42;;;11.23;;
38717;SDS011;24468;52.128;9.278;2024-03-06T02:57:31;16.90;;;10.80;;
38717;SDS011;24468;52.128;9.278;2024-03-06T02:59:56;14.00;;;11.35;;
38717;SDS011;24468;52.128;9.278;2024-03-06T03:02:23;22.15;;;12.18;;
38717;SDS011;24468;52.128;9.278;2024-03-06T03:04:52;19.05;;;11.73;;
38717;SDS011;24468;52.128;9.278;2024-03-06T03:07:18;18.20;;;11.25;;
38717;SDS011;24468;52.128;9.278;2024-03-06T03:09:46;18.45;;;11.77;;
38717;SDS011;24468;52.128;9.278;2024-03-06T03:12:12;16.20;;;12.13;;
38717;SDS011;24468;52.128;9.278;2024-03-06T03:14:41;18.35;;;12.88;;
38717;SDS011;24468;52.128;9.278;2024-03-06T03:17:08;15.90;;;12.23;;
38717;SDS011;24468;52.128;9.278;2024-03-06T03:19:33;15.50;;;12.23;;
38717;SDS011;24468;52.128;9.278;2024-03-06T03:21:59;19.33;;;12.65;;
38717;SDS011;24468;52.128;9.278;2024-03-06T03:24:25;22.23;;;12.32;;
38717;SDS011;24468;52.128;9.278;2024-03-06T03:26:51;21.80;;;13.43;;
38717;SDS011;24468;52.128;9.278;2024-03-06T03:29:17;18.45;;;12.32;;
38717;SDS011;24468;52.128;9.278;2024-03-06T03:31:44;16.38;;;12.82;;
38717;SDS011;24468;52.128;9.278;2024-03-06T03:34:10;16.75;;;12.18;;
38717;SDS011;24468;52.128;9.278;2024-03-06T03:36:42;14.55;;;11.88;;
38717;SDS011;24468;52.128;9.278;2024-03-06T03:39:10;13.88;;;11.60;;
38717;SDS011;24468;52.128;9.278;2024-03-06T03:41:42;17.55;;;12.50;;
38717;SDS011;24468;52.128;9.278;2024-03-06T03:44:16;16.95;;;12.98;;
38717;SDS011;24468;52.128;9.278;2024-03-06T03:46:43;16.95;;;12.98;;
38717;SDS011;24468;52.128;9.278;2024-03-06T03:49:09;17.02;;;12.93;;
38717;SDS011;24468;52.128;9.278;2024-03-06T03:51:36;15.77;;;11.65;;
38717;SDS011;24468;52.128;9.278;2024-03-06T03:54:03;19.67;;;13.73;;
38717;SDS011;24468;52.128;9.278;2024-03-06T03:56:29;16.55;;;12.50;;
38717;SDS011;24468;52.128;9.278;2024-03-06T03:58:55;16.02;;;11.40;;
38717;SDS011;24468;52.128;9.278;2024-03-06T04:01:22;16.85;;;12.55;;
38717;SDS011;24468;52.128;9.278;2024-03-06T04:03:48;18.15;;;12.93;;
38717;SDS011;24468;52.128;9.278;2024-03-06T04:06:13;21.63;;;14.30;;
38717;SDS011;24468;52.128;9.278;2024-03-06T04:08:39;20.75;;;13.60;;
38717;SDS011;24468;52.128;9.278;2024-03-06T04:11:06;18.80;;;13.80;;
38717;SDS011;24468;52.128;9.278;2024-03-06T04:13:34;17.98;;;13.68;;
38717;SDS011;24468;52.128;9.278;2024-03-06T04:18:30;19.42;;;13.88;;
38717;SDS011;24468;52.128;9.278;2024-03-06T04:21:06;18.23;;;13.68;;
38717;SDS011;24468;52.128;9.278;2024-03-06T04:23:32;20.20;;;13.50;;
38717;SDS011;24468;52.128;9.278;2024-03-06T04:25:58;17.88;;;13.85;;
38717;SDS011;24468;52.128;9.278;2024-03-06T04:28:25;17.73;;;13.50;;
38717;SDS011;24468;52.128;9.278;2024-03-06T04:30:51;19.45;;;14.50;;
38717;SDS011;24468;52.128;9.278;2024-03-06T04:33:16;22.52;;;14.88;;
38717;SDS011;24468;52.128;9.278;2024-03-06T04:35:42;19.45;;;13.98;;
38717;SDS011;24468;52.128;9.278;2024-03-06T04:38:07;19.02;;;14.10;;
38717;SDS011;24468;52.128;9.278;2024-03-06T04:40:33;19.00;;;13.90;;
38717;SDS011;24468;52.128;9.278;2024-03-06T04:43:01;21.13;;;14.63;;
38717;SDS011;24468;52.128;9.278;2024-03-06T04:45:27;22.75;;;14.73;;
38717;SDS011;24468;52.128;9.278;2024-03-06T04:47:55;20.15;;;13.82;;
38717;SDS011;24468;52.128;9.278;2024-03-06T04:50:21;20.75;;;14.77;;
38717;SDS011;24468;52.128;9.278;2024-03-06T04:52:46;22.67;;;14.70;;
38717;SDS011;24468;52.128;9.278;2024-03-06T04:55:12;18.15;;;13.98;;
38717;SDS011;24468;52.128;9.278;2024-03-06T04:57:42;22.73;;;15.27;;
38717;SDS011;24468;52.128;9.278;2024-03-06T05:00:09;19.05;;;13.30;;
38717;SDS011;24468;52.128;9.278;2024-03-06T05:02:36;22.02;;;13.95;;
38717;SDS011;24468;52.128;9.278;2024-03-06T05:05:02;20.88;;;15.00;;
38717;SDS011;24468;52.128;9.278;2024-03-06T05:07:29;19.02;;;13.07;;
38717;SDS011;24468;52.128;9.278;2024-03-06T05:09:56;19.48;;;14.70;;
38717;SDS011;24468;52.128;9.278;2024-03-06T05:12:23;19.70;;;14.55;;
38717;SDS011;24468;52.128;9.278;2024-03-06T05:14:50;23.65;;;14.05;;
38717;SDS011;24468;52.128;9.278;2024-03-06T05:17:16;18.73;;;14.10;;
38717;SDS011;24468;52.128;9.278;2024-03-06T05:19:42;18.10;;;14.80;;
38717;SDS011;24468;52.128;9.278;2024-03-06T05:22:09;20.35;;;14.45;;
38717;SDS011;24468;52.128;9.278;2024-03-06T05:24:36;18.05;;;14.30;;
38717;SDS011;24468;52.128;9.278;2024-03-06T05:27:02;19.60;;;14.00;;
38717;SDS011;24468;52.128;9.278;2024-03-06T05:29:28;16.23;;;13.40;;
38717;SDS011;24468;52.128;9.278;2024-03-06T05:31:54;19.42;;;15.68;;
38717;SDS011;24468;52.128;9.278;2024-03-06T05:34:20;20.40;;;14.82;;
38717;SDS011;24468;52.128;9.278;2024-03-06T05:36:47;24.00;;;14.25;;
38717;SDS011;24468;52.128;9.278;2024-03-06T05:39:13;17.48;;;13.85;;
38717;SDS011;24468;52.128;9.278;2024-03-06T05:41:39;16.40;;;14.23;;
38717;SDS011;24468;52.128;9.278;2024-03-06T05:44:06;19.90;;;14.50;;
38717;SDS011;24468;52.128;9.278;2024-03-06T05:46:31;18.45;;;14.00;;
38717;SDS011;24468;52.128;9.278;2024-03-06T05:48:57;21.63;;;14.70;;
38717;SDS011;24468;52.128;9.278;2024-03-06T05:51:23;18.17;;;14.52;;
38717;SDS011;24468;52.128;9.278;2024-03-06T05:53:48;21.70;;;15.38;;
38717;SDS011;24468;52.128;9.278;2024-03-06T05:56:14;22.27;;;15.07;;
38717;SDS011;24468;52.128;9.278;2024-03-06T05:58:41;21.50;;;14.32;;
38717;SDS011;24468;52.128;9.278;2024-03-06T06:01:07;21.17;;;14.77;;
38717;SDS011;24468;52.128;9.278;2024-03-06T06:03:33;20.83;;;15.63;;
38717;SDS011;24468;52.128;9.278;2024-03-06T06:05:59;20.98;;;14.13;;
38717;SDS011;24468;52.128;9.278;2024-03-06T06:08:24;27.38;;;16.27;;
38717;SDS011;24468;52.128;9.278;2024-03-06T06:10:50;21.98;;;15.85;;
38717;SDS011;24468;52.128;9.278;2024-03-06T06:13:19;20.88;;;14.35;;
38717;SDS011;24468;52.128;9.278;2024-03-06T06:15:46;21.85;;;15.55;;
38717;SDS011;24468;52.128;9.278;2024-03-06T06:18:12;27.90;;;14.95;;
38717;SDS011;24468;52.128;9.278;2024-03-06T06:20:37;19.90;;;14.60;;
38717;SDS011;24468;52.128;9.278;2024-03-06T06:23:03;19.80;;;14.90;;
38717;SDS011;24468;52.128;9.278;2024-03-06T06:25:29;23.27;;;14.65;;
38717;SDS011;24468;52.128;9.278;2024-03-06T06:27:55;21.65;;;15.45;;
38717;SDS011;24468;52.128;9.278;2024-03-06T06:30:20;19.33;;;15.48;;
38717;SDS011;24468;52.128;9.278;2024-03-06T06:32:47;23.40;;;15.50;;
38717;SDS011;24468;52.128;9.278;2024-03-06T06:35:12;22.75;;;16.00;;
38717;SDS011;24468;52.128;9.278;2024-03-06T06:37:40;21.02;;;15.02;;
38717;SDS011;24468;52.128;9.278;2024-03-06T06:40:06;21.42;;;14.80;;
38717;SDS011;24468;52.128;9.278;2024-03-06T06:42:34;23.00;;;15.90;;
38717;SDS011;24468;52.128;9.278;2024-03-06T06:45:00;26.48;;;15.10;;
38717;SDS011;24468;52.128;9.278;2024-03-06T06:47:27;19.25;;;15.30;;
38717;SDS011;24468;52.128;9.278;2024-03-06T06:49:53;21.15;;;14.52;;
38717;SDS011;24468;52.128;9.278;2024-03-06T06:52:19;18.92;;;15.30;;
38717;SDS011;24468;52.128;9.278;2024-03-06T06:54:45;25.17;;;15.45;;
38717;SDS011;24468;52.128;9.278;2024-03-06T06:57:10;19.92;;;14.95;;
38717;SDS011;24468;52.128;9.278;2024-03-06T06:59:36;18.75;;;14.80;;
38717;SDS011;24468;52.128;9.278;2024-03-06T07:02:04;20.58;;;15.50;;
38717;SDS011;24468;52.128;9.278;2024-03-06T07:04:31;21.80;;;15.43;;
38717;SDS011;24468;52.128;9.278;2024-03-06T07:06:56;21.67;;;14.85;;
38717;SDS011;24468;52.128;9.278;2024-03-06T07:09:22;21.65;;;14.85;;
38717;SDS011;24468;52.128;9.278;2024-03-06T07:11:48;22.80;;;15.80;;
38717;SDS011;24468;52.128;9.278;2024-03-06T07:14:14;24.27;;;16.73;;
38717;SDS011;24468;52.128;9.278;2024-03-06T07:16:44;21.27;;;15.23;;
38717;SDS011;24468;52.128;9.278;2024-03-06T07:19:10;22.40;;;16.17;;
38717;SDS011;24468;52.128;9.278;2024-03-06T07:21:36;19.77;;;15.45;;
38717;SDS011;24468;52.128;9.278;2024-03-06T07:24:02;19.95;;;15.65;;
38717;SDS011;24468;52.128;9.278;2024-03-06T07:26:29;22.38;;;14.85;;
38717;SDS011;24468;52.128;9.278;2024-03-06T07:28:57;22.92;;;16.23;;
38717;SDS011;24468;52.128;9.278;2024-03-06T07:31:23;20.10;;;15.07;;
38717;SDS011;24468;52.128;9.278;2024-03-06T07:33:50;24.63;;;16.25;;
38717;SDS011;24468;52.128;9.278;2024-03-06T07:36:15;17.88;;;14.73;;
38717;SDS011;24468;52.128;9.278;2024-03-06T07:38:41;22.35;;;16.38;;
38717;SDS011;24468;52.128;9.278;2024-03-06T07:41:07;22.55;;;16.45;;
38717;SDS011;24468;52.128;9.278;2024-03-06T07:43:33;21.92;;;15.82;;
38717;SDS011;24468;52.128;9.278;2024-03-06T07:45:59;22.67;;;15.95;;
38717;SDS011;24468;52.128;9.278;2024-03-06T07:48:24;21.77;;;16.10;;
38717;SDS011;24468;52.128;9.278;2024-03-06T07:50:51;22.20;;;16.33;;
38717;SDS011;24468;52.128;9.278;2024-03-06T07:53:16;22.08;;;15.52;;
38717;SDS011;24468;52.128;9.278;2024-03-06T07:55:42;20.30;;;16.30;;
38717;SDS011;24468;52.128;9.278;2024-03-06T07:58:07;20.35;;;15.20;;
38717;SDS011;24468;52.128;9.278;2024-03-06T08:00:34;21.80;;;14.95;;
38717;SDS011;24468;52.128;9.278;2024-03-06T08:03:00;24.83;;;16.83;;
38717;SDS011;24468;52.128;9.278;2024-03-06T08:05:26;20.95;;;15.48;;
38717;SDS011;24468;52.128;9.278;2024-03-06T08:07:53;25.67;;;16.45;;
38717;SDS011;24468;52.128;9.278;2024-03-06T08:10:18;27.85;;;16.05;;
38717;SDS011;24468;52.128;9.278;2024-03-06T08:12:44;23.45;;;15.70;;
38717;SDS011;24468;52.128;9.278;2024-03-06T08:15:13;21.73;;;15.75;;
38717;SDS011;24468;52.128;9.278;2024-03-06T08:17:40;22.05;;;15.30;;
38717;SDS011;24468;52.128;9.278;2024-03-06T08:20:08;23.52;;;16.13;;
38717;SDS011;24468;52.128;9.278;2024-03-06T08:22:35;26.58;;;20.25;;
38717;SDS011;24468;52.128;9.278;2024-03-06T08:25:08;31.83;;;19.65;;
38717;SDS011;24468;52.128;9.278;2024-03-06T08:27:36;31.10;;;22.27;;
38717;SDS011;24468;52.128;9.278;2024-03-06T08:30:05;39.75;;;26.52;;
38717;SDS011;24468;52.128;9.278;2024-03-06T08:32:32;24.85;;;17.80;;
38717;SDS011;24468;52.128;9.278;2024-03-06T08:35:00;22.10;;;16.08;;
38717;SDS011;24468;52.128;9.278;2024-03-06T08:37:30;20.85;;;15.88;;
38717;SDS011;24468;52.128;9.278;2024-03-06T08:39:58;18.30;;;15.65;;
38717;SDS011;24468;52.128;9.278;2024-03-06T08:42:25;24.35;;;15.50;;
38717;SDS011;24468;52.128;9.278;2024-03-06T08:44:51;23.40;;;15.23;;
38717;SDS011;24468;52.128;9.278;2024-03-06T08:47:17;21.17;;;15.10;;
38717;SDS011;24468;52.128;9.278;2024-03-06T08:49:42;28.52;;;19.33;;
38717;SDS011;24468;52.128;9.278;2024-03-06T08:52:08;22.50;;;15.88;;
38717;SDS011;24468;52.128;9.278;2024-03-06T08:54:35;24.92;;;16.75;;
38717;SDS011;24468;52.128;9.278;2024-03-06T08:57:01;23.25;;;17.30;;
38717;SDS011;24468;52.128;9.278;2024-03-06T08:59:28;22.58;;;15.57;;
38717;SDS011;24468;52.128;9.278;2024-03-06T09:01:54;24.33;;;16.92;;
38717;SDS011;24468;52.128;9.278;2024-03-06T09:04:21;21.20;;;15.68;;
38717;SDS011;24468;52.128;9.278;2024-03-06T09:06:47;20.92;;;16.25;;
38717;SDS011;24468;52.128;9.278;2024-03-06T09:09:13;23.48;;;16.95;;
38717;SDS011;24468;52.128;9.278;2024-03-06T09:11:40;21.58;;;14.85;;
38717;SDS011;24468;52.128;9.278;2024-03-06T09:14:09;24.55;;;16.65;;
38717;SDS011;24468;52.128;9.278;2024-03-06T09:16:35;25.00;;;18.77;;
38717;SDS011;24468;52.128;9.278;2024-03-06T09:19:01;22.88;;;15.27;;
38717;SDS011;24468;52.128;9.278;2024-03-06T09:21:27;19.38;;;15.20;;
38717;SDS011;24468;52.128;9.278;2024-03-06T09:23:53;24.20;;;16.38;;
38717;SDS011;24468;52.128;9.278;2024-03-06T09:26:19;23.58;;;16.90;;
38717;SDS011;24468;52.128;9.278;2024-03-06T09:28:45;22.58;;;18.08;;
38717;SDS011;24468;52.128;9.278;2024-03-06T09:31:11;27.63;;;17.08;;
38717;SDS011;24468;52.128;9.278;2024-03-06T09:33:38;25.13;;;18.80;;
38717;SDS011;24468;52.128;9.278;2024-03-06T09:36:04;24.25;;;17.40;;
38717;SDS011;24468;52.128;9.278;2024-03-06T09:38:31;22.58;;;18.05;;
38717;SDS011;24468;52.128;9.278;2024-03-06T09:40:57;23.25;;;16.58;;
38717;SDS011;24468;52.128;9.278;2024-03-06T09:43:22;20.65;;;14.57;;
38717;SDS011;24468;52.128;9.278;2024-03-06T09:45:49;25.13;;;15.90;;
38717;SDS011;24468;52.128;9.278;2024-03-06T09:48:16;20.42;;;15.15;;
38717;SDS011;24468;52.128;9.278;2024-03-06T09:50:46;19.90;;;15.25;;
38717;SDS011;24468;52.128;9.278;2024-03-06T09:53:15;23.35;;;15.65;;
38717;SDS011;24468;52.128;9.278;2024-03-06T09:55:43;20.88;;;14.52;;
38717;SDS011;24468;52.128;9.278;2024-03-06T09:58:11;19.08;;;14.52;;
38717;SDS011;24468;52.128;9.278;2024-03-06T10:00:37;21.25;;;16.45;;
38717;SDS011;24468;52.128;9.278;2024-03-06T10:03:03;19.15;;;14.35;;
38717;SDS011;24468;52.128;9.278;2024-03-06T10:05:33;20.30;;;14.90;;
38717;SDS011;24468;52.128;9.278;2024-03-06T10:08:03;20.65;;;17.02;;
38717;SDS011;24468;52.128;9.278;2024-03-06T10:10:29;26.83;;;18.00;;
38717;SDS011;24468;52.128;9.278;2024-03-06T10:12:55;24.65;;;19.02;;
38717;SDS011;24468;52.128;9.278;2024-03-06T10:15:22;21.42;;;14.80;;
38717;SDS011;24468;52.128;9.278;2024-03-06T10:17:48;29.92;;;15.57;;
38717;SDS011;24468;52.128;9.278;2024-03-06T10:20:21;21.20;;;15.15;;
38717;SDS011;24468;52.128;9.278;2024-03-06T10:22:48;18.23;;;14.73;;
38717;SDS011;24468;52.128;9.278;2024-03-06T10:25:19;22.63;;;14.98;;
38717;SDS011;24468;52.128;9.278;2024-03-06T10:28:04;20.25;;;15.38;;
38717;SDS011;24468;52.128;9.278;2024-03-06T10:30:35;22.60;;;14.90;;
38717;SDS011;24468;52.128;9.278;2024-03-06T10:33:03;22.95;;;15.80;;
38717;SDS011;24468;52.128;9.278;2024-03-06T10:35:31;21.08;;;14.77;;
38717;SDS011;24468;52.128;9.278;2024-03-06T10:38:02;22.33;;;15.88;;
38717;SDS011;24468;52.128;9.278;2024-03-06T10:40:30;17.98;;;14.05;;
38717;SDS011;24468;52.128;9.278;2024-03-06T10:42:58;24.52;;;14.35;;
38717;SDS011;24468;52.128;9.278;2024-03-06T10:45:27;19.45;;;14.68;;
38717;SDS011;24468;52.128;9.278;2024-03-06T10:48:25;22.15;;;14.25;;
38717;SDS011;24468;52.128;9.278;2024-03-06T10:50:53;24.92;;;15.25;;
38717;SDS011;24468;52.128;9.278;2024-03-06T10:53:21;20.80;;;13.77;;
38717;SDS011;24468;52.128;9.278;2024-03-06T10:55:51;18.05;;;13.73;;
38717;SDS011;24468;52.128;9.278;2024-03-06T10:58:16;25.42;;;15.80;;
38717;SDS011;24468;52.128;9.278;2024-03-06T11:00:44;21.88;;;15.07;;
38717;SDS011;24468;52.128;9.278;2024-03-06T11:03:12;18.67;;;13.98;;
38717;SDS011;24468;52.128;9.278;2024-03-06T11:05:42;20.85;;;14.18;;
38717;SDS011;24468;52.128;9.278;2024-03-06T11:08:11;18.15;;;13.80;;
38717;SDS011;24468;52.128;9.278;2024-03-06T11:10:39;19.70;;;14.05;;
38717;SDS011;24468;52.128;9.278;2024-03-06T11:15:49;20.85;;;16.40;;
38717;SDS011;24468;52.128;9.278;2024-03-06T11:23:29;18.90;;;13.68;;
38717;SDS011;24468;52.128;9.278;2024-03-06T11:28:32;20.10;;;14.55;;
38717;SDS011;24468;52.128;9.278;2024-03-06T11:33:46;23.33;;;14.82;;
38717;SDS011;24468;52.128;9.278;2024-03-06T11:36:14;19.13;;;13.65;;
38717;SDS011;24468;52.128;9.278;2024-03-06T11:41:29;22.45;;;14.75;;
38717;SDS011;24468;52.128;9.278;2024-03-06T11:43:57;26.52;;;14.63;;
38717;SDS011;24468;52.128;9.278;2024-03-06T11:49:16;18.60;;;14.60;;
38717;SDS011;24468;52.128;9.278;2024-03-06T11:51:53;20.23;;;14.40;;
38717;SDS011;24468;52.128;9.278;2024-03-06T11:54:22;17.83;;;13.93;;
38717;SDS011;24468;52.128;9.278;2024-03-06T11:56:49;17.40;;;14.23;;
38717;SDS011;24468;52.128;9.278;2024-03-06T11:59:16;18.95;;;14.00;;
38717;SDS011;24468;52.128;9.278;2024-03-06T12:01:42;17.92;;;14.52;;
38717;SDS011;24468;52.128;9.278;2024-03-06T12:04:09;22.70;;;14.90;;
38717;SDS011;24468;52.128;9.278;2024-03-06T12:06:35;22.45;;;13.75;;
38717;SDS011;24468;52.128;9.278;2024-03-06T12:09:00;19.58;;;13.05;;
38717;SDS011;24468;52.128;9.278;2024-03-06T12:11:26;22.48;;;15.32;;
38717;SDS011;24468;52.128;9.278;2024-03-06T12:13:53;20.08;;;14.93;;
38717;SDS011;24468;52.128;9.278;2024-03-06T12:16:20;21.13;;;14.60;;
38717;SDS011;24468;52.128;9.278;2024-03-06T12:18:46;23.55;;;15.40;;
38717;SDS011;24468;52.128;9.278;2024-03-06T12:21:11;22.08;;;14.45;;
38717;SDS011;24468;52.128;9.278;2024-03-06T12:23:38;19.50;;;14.85;;
38717;SDS011;24468;52.128;9.278;2024-03-06T12:26:05;20.83;;;13.95;;
38717;SDS011;24468;52.128;9.278;2024-03-06T12:28:33;20.98;;;13.32;;
38717;SDS011;24468;52.128;9.278;2024-03-06T12:31:01;21.73;;;13.60;;
38717;SDS011;24468;52.128;9.278;2024-03-06T12:33:28;18.83;;;13.90;;
38717;SDS011;24468;52.128;9.278;2024-03-06T12:36:01;17.45;;;13.60;;
38717;SDS011;24468;52.128;9.278;2024-03-06T12:38:28;21.88;;;13.90;;
38717;SDS011;24468;52.128;9.278;2024-03-06T12:40:54;18.27;;;14.20;;
38717;SDS011;24468;52.128;9.278;2024-03-06T12:43:20;20.40;;;13.70;;
38717;SDS011;24468;52.128;9.278;2024-03-06T12:45:45;25.30;;;14.50;;
38717;SDS011;24468;52.128;9.278;2024-03-06T12:48:11;19.92;;;14.70;;
38717;SDS011;24468;52.128;9.278;2024-03-06T12:50:37;19.30;;;14.70;;
38717;SDS011;24468;52.128;9.278;2024-03-06T12:53:03;17.85;;;14.35;;
38717;SDS011;24468;52.128;9.278;2024-03-06T12:55:31;23.67;;;13.70;;
38717;SDS011;24468;52.128;9.278;2024-03-06T12:57:57;20.58;;;15.52;;
38717;SDS011;24468;52.128;9.278;2024-03-06T13:00:22;19.20;;;14.40;;
38717;SDS011;24468;52.128;9.278;2024-03-06T13:02:49;20.52;;;15.02;;
38717;SDS011;24468;52.128;9.278;2024-03-06T13:05:18;21.73;;;14.50;;
38717;SDS011;24468;52.128;9.278;2024-03-06T13:07:44;22.17;;;13.88;;
38717;SDS011;24468;52.128;9.278;2024-03-06T13:10:10;25.42;;;14.32;;
38717;SDS011;24468;52.128;9.278;2024-03-06T13:12:37;18.98;;;15.10;;
38717;SDS011;24468;52.128;9.278;2024-03-06T13:15:03;20.83;;;14.98;;
38717;SDS011;24468;52.128;9.278;2024-03-06T13:17:30;30.83;;;15.32;;
38717;SDS011;24468;52.128;9.278;2024-03-06T13:19:55;19.77;;;14.32;;
38717;SDS011;24468;52.128;9.278;2024-03-06T13:22:21;26.27;;;13.70;;
38717;SDS011;24468;52.128;9.278;2024-03-06T13:24:47;18.88;;;12.85;;
38717;SDS011;24468;52.128;9.278;2024-03-06T13:27:13;19.83;;;13.32;;
38717;SDS011;24468;52.128;9.278;2024-03-06T13:29:39;25.90;;;16.45;;
38717;SDS011;24468;52.128;9.278;2024-03-06T13:32:05;20.38;;;14.48;;
38717;SDS011;24468;52.128;9.278;2024-03-06T13:34:32;16.00;;;13.20;;
38717;SDS011;24468;52.128;9.278;2024-03-06T13:36:58;21.63;;;14.85;;
38717;SDS011;24468;52.128;9.278;2024-03-06T13:39:24;24.75;;;15.73;;
38717;SDS011;24468;52.128;9.278;2024-03-06T13:41:50;23.90;;;15.00;;
38717;SDS011;24468;52.128;9.278;2024-03-06T13:44:17;19.02;;;14.82;;
38717;SDS011;24468;52.128;9.278;2024-03-06T13:46:43;23.13;;;16.00;;
38717;SDS011;24468;52.128;9.278;2024-03-06T13:49:11;24.42;;;16.38;;
38717;SDS011;24468;52.128;9.278;2024-03-06T13:52:08;18.58;;;14.43;;
38717;SDS011;24468;52.128;9.278;2024-03-06T13:54:40;19.33;;;15.00;;
38717;SDS011;24468;52.128;9.278;2024-03-06T13:57:07;19.13;;;15.02;;
38717;SDS011;24468;52.128;9.278;2024-03-06T13:59:33;20.15;;;15.15;;
38717;SDS011;24468;52.128;9.278;2024-03-06T14:01:59;22.08;;;15.73;;
38717;SDS011;24468;52.128;9.278;2024-03-06T14:04:26;22.65;;;13.85;;
38717;SDS011;24468;52.128;9.278;2024-03-06T14:06:52;26.08;;;14.98;;
38717;SDS011;24468;52.128;9.278;2024-03-06T14:09:18;17.20;;;13.43;;
38717;SDS011;24468;52.128;9.278;2024-03-06T14:11:44;20.08;;;14.77;;
38717;SDS011;24468;52.128;9.278;2024-03-06T14:14:10;24.00;;;14.63;;
38717;SDS011;24468;52.128;9.278;2024-03-06T14:16:39;20.58;;;13.90;;
38717;SDS011;24468;52.128;9.278;2024-03-06T14:19:05;21.67;;;14.57;;
38717;SDS011;24468;52.128;9.278;2024-03-06T14:21:31;23.83;;;15.25;;
38717;SDS011;24468;52.128;9.278;2024-03-06T14:24:00;21.48;;;14.52;;
38717;SDS011;24468;52.128;9.278;2024-03-06T14:26:30;21.08;;;14.75;;
38717;SDS011;24468;52.128;9.278;2024-03-06T14:28:57;21.23;;;14.70;;
38717;SDS011;24468;52.128;9.278;2024-03-06T14:31:23;21.25;;;15.18;;
38717;SDS011;24468;52.128;9.278;2024-03-06T14:33:49;22.55;;;15.55;;
38717;SDS011;24468;52.128;9.278;2024-03-06T14:36:15;27.27;;;16.65;;
38717;SDS011;24468;52.128;9.278;2024-03-06T14:38:42;21.13;;;15.95;;
38717;SDS011;24468;52.128;9.278;2024-03-06T14:41:09;23.88;;;16.65;;
38717;SDS011;24468;52.128;9.278;2024-03-06T14:43:37;24.05;;;15.77;;